Time;durP1;ratioP1;P1;durP2;ratioP2;P2;SDS_P1;SDS_P2;PMS_P1;PMS_P2;Temp;Humidity;BMP_temperature;BMP_pressure;BME280_temperature;BME280_humidity;BME280_pressure;Samples;Min_cycle;Max_cycle;Signal;HPM_P1;HPM_P2
2022/09/24 00:00:35;;;;;;;3.27;2.40;;;;;;;15.86;58.91;101116.16;4893256;28;114103;-48
2022/09/24 00:03:01;;;;;;;4.23;3.00;;;;;;;15.87;58.63;101109.34;4875165;28;97476;-48
2022/09/24 00:05:26;;;;;;;2.97;2.63;;;;;;;15.84;58.58;101115.91;4888074;28;105802;-48
2022/09/24 00:07:51;;;;;;;3.13;2.93;;;;;;;15.81;58.71;101112.16;4875906;28;97316;-48
2022/09/24 00:10:16;;;;;;;3.27;2.50;;;;;;;15.73;58.75;101114.00;4886795;28;97576;-47
2022/09/24 00:12:42;;;;;;;2.87;2.53;;;;;;;15.73;58.81;101116.75;4882878;28;98707;-47
2022/09/24 00:15:08;;;;;;;2.67;2.50;;;;;;;15.71;58.86;101103.41;4872496;28;114368;-46
2022/09/24 00:17:33;;;;;;;2.90;2.40;;;;;;;15.72;58.88;101113.25;4877777;28;98450;-46
2022/09/24 00:19:58;;;;;;;2.47;2.27;;;;;;;15.71;58.96;101105.44;4881521;28;117761;-48
2022/09/24 00:22:23;;;;;;;2.90;2.70;;;;;;;15.67;59.00;101100.19;4872153;28;108757;-48
2022/09/24 00:27:33;;;;;;;3.80;2.60;;;;;;;15.61;58.97;101098.72;4858274;28;98102;-47
2022/09/24 00:29:58;;;;;;;2.50;2.37;;;;;;;15.57;59.05;101092.69;4878798;28;100565;-46
2022/09/24 00:32:23;;;;;;;2.73;2.53;;;;;;;15.54;59.17;101094.47;4880924;28;108876;-48
2022/09/24 00:34:53;;;;;;;3.37;2.50;;;;;;;15.50;59.20;101093.25;4881053;28;96860;-49
2022/09/24 00:37:18;;;;;;;2.50;2.33;;;;;;;15.49;59.29;101089.72;4886345;28;97734;-48
2022/09/24 00:39:44;;;;;;;3.07;2.87;;;;;;;15.51;59.33;101089.94;4871125;28;97368;-49
2022/09/24 00:42:13;;;;;;;2.80;2.60;;;;;;;15.51;59.32;101084.41;4880419;28;96684;-48
2022/09/24 00:44:44;;;;;;;3.07;2.80;;;;;;;15.52;59.74;101085.94;4882651;28;97458;-48
2022/09/24 00:47:27;;;;;;;2.47;2.33;;;;;;;15.54;60.09;101088.19;4870004;28;96957;-48
2022/09/24 00:50:00;;;;;;;3.00;2.70;;;;;;;15.56;59.73;101085.63;4872312;28;102115;-48
2022/09/24 00:52:25;;;;;;;2.60;2.47;;;;;;;15.54;59.42;101085.41;4877274;28;96923;-48
2022/09/24 00:54:52;;;;;;;3.13;2.83;;;;;;;15.54;59.41;101079.84;4878272;28;105351;-46
2022/09/24 00:57:18;;;;;;;2.87;2.57;;;;;;;15.50;59.42;101074.59;4873411;28;97459;-46
2022/09/24 00:59:44;;;;;;;4.30;2.90;;;;;;;15.48;59.51;101087.47;4886380;28;97513;-46
2022/09/24 01:02:09;;;;;;;2.50;2.30;;;;;;;15.43;59.69;101077.13;4883440;28;97494;-46
2022/09/24 01:04:35;;;;;;;2.50;2.40;;;;;;;15.38;59.54;101075.91;4868977;28;101681;-48
2022/09/24 01:07:00;;;;;;;3.20;2.90;;;;;;;15.39;59.67;101076.66;4880640;28;97404;-48
2022/09/24 01:09:26;;;;;;;2.70;2.60;;;;;;;15.37;59.75;101077.19;4891956;28;97390;-48
2022/09/24 01:12:15;;;;;;;2.80;2.63;;;;;;;15.36;60.70;101069.38;4881960;28;98077;-48
2022/09/24 01:14:59;;;;;;;2.87;2.67;;;;;;;15.36;60.22;101067.34;4884109;28;97818;-48
2022/09/24 01:17:49;;;;;;;3.30;3.00;;;;;;;15.37;60.09;101063.31;4891762;28;101819;-48
2022/09/24 01:20:17;;;;;;;2.47;2.37;;;;;;;15.40;59.75;101067.06;4886888;28;102605;-48
2022/09/24 01:22:46;;;;;;;2.50;2.40;;;;;;;15.41;59.71;101066.56;4883060;28;96933;-48
2022/09/24 01:25:32;;;;;;;2.73;2.53;;;;;;;15.44;60.19;101065.53;4868793;28;97298;-48
2022/09/24 01:28:12;;;;;;;3.33;3.03;;;;;;;15.45;60.01;101071.84;4888098;28;101893;-48
2022/09/24 01:30:40;;;;;;;2.50;2.30;;;;;;;15.47;59.89;101067.31;4884418;28;100155;-48
2022/09/24 01:33:12;;;;;;;2.97;2.50;;;;;;;15.51;59.98;101064.22;4893784;28;97019;-48
2022/09/24 01:35:42;;;;;;;2.40;2.20;;;;;;;15.51;59.94;101067.75;4888819;28;97426;-48
2022/09/24 01:38:16;;;;;;;3.30;3.00;;;;;;;15.52;59.96;101060.19;4898375;28;97089;-48
2022/09/24 01:40:44;;;;;;;2.70;2.60;;;;;;;15.52;59.80;101065.75;4872969;28;97222;-48
2022/09/24 01:43:11;;;;;;;3.07;2.80;;;;;;;15.48;59.99;101062.50;4882280;28;96912;-48
2022/09/24 01:45:38;;;;;;;3.20;2.63;;;;;;;15.47;60.04;101058.22;4890074;28;97721;-48
2022/09/24 01:48:05;;;;;;;3.00;2.80;;;;;;;15.47;60.04;101055.44;4889525;28;98721;-46
2022/09/24 01:50:47;;;;;;;3.00;2.77;;;;;;;15.49;60.55;101058.44;4887487;28;100345;-48
2022/09/24 01:53:20;;;;;;;3.10;2.77;;;;;;;15.51;60.31;101055.91;4887865;28;96849;-47
2022/09/24 01:55:51;;;;;;;2.60;2.50;;;;;;;15.50;60.20;101057.97;4884871;28;96869;-46
2022/09/24 01:58:31;;;;;;;2.50;2.40;;;;;;;15.53;60.58;101059.69;4886030;28;101823;-47
2022/09/24 02:01:05;;;;;;;3.57;3.07;;;;;;;15.54;60.34;101054.91;4886403;28;100237;-48
2022/09/24 02:03:35;;;;;;;3.43;3.03;;;;;;;15.54;60.26;101063.97;4883595;28;97592;-47
2022/09/24 02:06:07;;;;;;;4.50;3.00;;;;;;;15.55;60.27;101061.97;4888630;28;96955;-47
2022/09/24 02:08:39;;;;;;;6.47;2.70;;;;;;;15.56;60.38;101057.91;4892695;28;103787;-47
2022/09/24 02:11:16;;;;;;;3.00;2.80;;;;;;;15.56;60.50;101066.22;4881090;28;102694;-47
2022/09/24 02:13:55;;;;;;;3.00;2.17;;;;;;;15.55;60.29;101062.69;4883238;28;96866;-48
2022/09/24 02:16:29;;;;;;;3.53;2.67;;;;;;;15.53;60.39;101058.94;4884262;28;97327;-47
2022/09/24 02:18:58;;;;;;;4.43;3.20;;;;;;;15.52;60.29;101062.97;4885355;28;100685;-47
2022/09/24 02:21:26;;;;;;;3.23;3.03;;;;;;;15.52;60.20;101058.19;4883842;28;100228;-47
2022/09/24 02:24:04;;;;;;;3.83;2.67;;;;;;;15.53;60.50;101064.50;4875948;28;97403;-47
2022/09/24 02:26:29;;;;;;;3.50;3.20;;;;;;;15.49;60.33;101059.22;4891786;28;96977;-47
2022/09/24 02:28:55;;;;;;;5.90;3.40;;;;;;;15.46;60.41;101060.25;4871091;28;98236;-47
2022/09/24 02:31:30;;;;;;;4.23;2.90;;;;;;;15.44;60.99;101062.03;4891454;28;105257;-48
2022/09/24 02:36:42;;;;;;;3.10;2.90;;;;;;;15.43;60.57;101054.94;4881610;28;96890;-48
2022/09/24 02:39:08;;;;;;;3.50;2.90;;;;;;;15.40;60.71;101058.75;4875246;28;97323;-48
2022/09/24 02:41:34;;;;;;;3.40;3.20;;;;;;;15.41;60.67;101052.69;4880700;28;97401;-48
2022/09/24 02:44:00;;;;;;;3.17;2.97;;;;;;;15.39;60.78;101049.69;4881514;28;97113;-48
2022/09/24 02:46:25;;;;;;;3.57;3.27;;;;;;;15.38;60.79;101048.19;4878192;28;97088;-48
2022/09/24 02:48:50;;;;;;;3.47;2.70;;;;;;;15.39;60.92;101052.47;4888730;28;110444;-47
2022/09/24 02:51:16;;;;;;;3.73;3.43;;;;;;;15.37;60.97;101055.00;4880742;28;97690;-47
2022/09/24 02:53:41;;;;;;;3.90;3.60;;;;;;;15.38;60.95;101048.19;4879061;28;97356;-48
2022/09/24 02:56:07;;;;;;;4.07;3.47;;;;;;;15.40;60.93;101053.97;4874123;28;113143;-47
2022/09/24 02:58:33;;;;;;;3.27;3.03;;;;;;;15.41;60.94;101052.69;4878336;28;98789;-48
2022/09/24 03:00:59;;;;;;;3.53;3.33;;;;;;;15.40;60.95;101044.88;4881306;28;97261;-48
2022/09/24 03:03:24;;;;;;;4.27;2.97;;;;;;;15.38;60.99;101047.41;4888209;28;97535;-48
2022/09/24 03:05:51;;;;;;;3.83;3.53;;;;;;;15.36;61.00;101042.41;4870260;28;97091;-47
2022/09/24 03:08:17;;;;;;;3.90;3.60;;;;;;;15.36;60.95;101042.41;4888199;28;97127;-48
2022/09/24 03:10:43;;;;;;;6.57;3.20;;;;;;;15.35;61.16;101043.69;4884162;28;97399;-48
2022/09/24 03:13:09;;;;;;;4.00;3.70;;;;;;;15.34;61.12;101038.63;4881037;28;97476;-47
2022/09/24 03:15:34;;;;;;;3.97;3.67;;;;;;;15.33;61.11;101043.41;4877207;28;97340;-47
2022/09/24 03:18:00;;;;;;;3.90;3.53;;;;;;;15.34;61.24;101041.41;4886272;28;96708;-47
2022/09/24 03:20:25;;;;;;;5.33;3.37;;;;;;;15.34;61.35;101036.63;4869030;28;98092;-48
2022/09/24 03:22:51;;;;;;;3.80;3.50;;;;;;;15.35;61.23;101045.69;4888499;28;97432;-48
2022/09/24 03:25:17;;;;;;;3.70;3.40;;;;;;;15.34;61.15;101033.09;4866132;28;98014;-47
2022/09/24 03:27:42;;;;;;;3.80;3.50;;;;;;;15.32;61.30;101032.84;4885223;28;102972;-48
2022/09/24 03:32:51;;;;;;;3.93;3.63;;;;;;;15.29;61.33;101029.09;4879034;28;98715;-48
2022/09/24 03:35:18;;;;;;;4.30;3.57;;;;;;;15.28;61.51;101024.81;4895422;28;111873;-48
2022/09/24 03:37:44;;;;;;;4.10;3.77;;;;;;;15.27;61.49;101011.47;4869725;28;96973;-47
2022/09/24 03:40:09;;;;;;;4.37;3.97;;;;;;;15.28;61.43;101016.50;4886699;28;97694;-48
2022/09/24 03:42:35;;;;;;;4.17;3.87;;;;;;;15.28;61.37;101013.75;4889177;28;96784;-47
2022/09/24 03:45:00;;;;;;;4.10;3.80;;;;;;;15.27;61.45;101015.00;4876239;28;97301;-48
2022/09/24 03:47:26;;;;;;;4.40;4.00;;;;;;;15.26;61.55;101021.06;4871164;28;120356;-48
2022/09/24 03:49:52;;;;;;;4.70;4.30;;;;;;;15.26;61.53;101012.75;4880912;28;98557;-47
2022/09/24 03:52:17;;;;;;;4.30;4.00;;;;;;;15.25;61.62;101014.75;4868440;28;97379;-48
2022/09/24 03:54:43;;;;;;;4.70;4.30;;;;;;;15.27;61.64;101011.47;4886236;28;97489;-47
2022/09/24 03:57:08;;;;;;;4.10;3.80;;;;;;;15.28;61.61;101013.75;4878548;28;98842;-48
2022/09/24 03:59:34;;;;;;;5.33;4.60;;;;;;;15.28;61.70;101016.50;4886410;28;100927;-48
2022/09/24 04:01:59;;;;;;;4.63;4.33;;;;;;;15.29;61.66;101014.50;4884271;28;97540;-48
2022/09/24 04:04:24;;;;;;;3.97;3.67;;;;;;;15.27;61.67;101003.16;4878576;28;97679;-48
2022/09/24 04:06:51;;;;;;;4.47;4.17;;;;;;;15.25;61.69;101003.66;4887395;28;114867;-48
2022/09/24 04:09:17;;;;;;;4.57;4.07;;;;;;;15.26;61.79;100999.66;4880988;28;102178;-48
2022/09/24 04:11:42;;;;;;;4.60;4.20;;;;;;;15.24;61.73;100995.88;4874101;28;97244;-47
2022/09/24 04:14:08;;;;;;;4.10;3.80;;;;;;;15.22;61.81;101001.94;4887355;28;97169;-47
2022/09/24 04:16:35;;;;;;;4.27;3.97;;;;;;;15.19;61.82;100989.09;4892582;28;97552;-47
2022/09/24 04:19:00;;;;;;;4.27;3.97;;;;;;;15.18;61.78;100987.59;4872025;28;97331;-48
2022/09/24 04:21:26;;;;;;;14.33;4.90;;;;;;;15.17;61.85;100985.34;4890698;28;96949;-47
2022/09/24 04:23:51;;;;;;;3.87;3.67;;;;;;;15.16;61.93;100978.31;4886880;28;97320;-49
2022/09/24 04:26:16;;;;;;;4.53;4.20;;;;;;;15.13;62.04;100987.66;4886284;28;98237;-48
2022/09/24 04:28:42;;;;;;;5.73;4.17;;;;;;;15.12;62.08;100980.59;4892464;28;104955;-48
2022/09/24 04:31:08;;;;;;;4.43;4.03;;;;;;;15.11;61.92;100987.41;4876184;28;96905;-48
2022/09/24 04:33:33;;;;;;;4.10;3.80;;;;;;;15.11;61.90;100987.41;4885012;28;97365;-48
2022/09/24 04:35:58;;;;;;;4.60;4.10;;;;;;;15.11;62.10;100987.41;4880218;28;97294;-48
2022/09/24 04:38:24;;;;;;;4.67;3.97;;;;;;;15.12;62.13;100986.91;4872753;28;102234;-48
2022/09/24 04:40:49;;;;;;;6.67;4.00;;;;;;;15.15;62.12;100982.34;4885432;28;97372;-47
2022/09/24 04:43:16;;;;;;;4.27;3.90;;;;;;;15.16;62.13;100981.81;4875581;28;107394;-47
2022/09/24 04:45:44;;;;;;;5.07;4.67;;;;;;;15.16;62.12;100992.19;4874220;28;98535;-48
2022/09/24 04:48:10;;;;;;;5.60;4.17;;;;;;;15.17;62.00;100988.88;4885537;28;97129;-48
2022/09/24 04:50:37;;;;;;;6.37;4.47;;;;;;;15.17;62.16;100990.88;4876126;28;96856;-48
2022/09/24 04:53:03;;;;;;;8.60;5.60;;;;;;;15.19;62.15;100980.03;4884266;28;97701;-47
2022/09/24 04:55:28;;;;;;;4.83;4.50;;;;;;;15.17;62.13;100988.13;4888783;28;97880;-47
2022/09/24 04:57:57;;;;;;;5.77;5.37;;;;;;;15.18;62.21;101000.72;4876789;28;97039;-47
2022/09/24 05:00:23;;;;;;;8.90;5.07;;;;;;;15.15;62.19;100996.19;4879955;28;97026;-48
2022/09/24 05:02:59;;;;;;;10.67;6.10;;;;;;;15.14;62.43;100989.91;4892826;28;96836;-48
2022/09/24 05:05:26;;;;;;;5.60;5.00;;;;;;;15.13;62.16;100990.41;4889284;28;100822;-48
2022/09/24 05:07:51;;;;;;;5.20;4.70;;;;;;;15.09;62.25;100990.72;4888495;28;97439;-47
2022/09/24 05:10:17;;;;;;;5.40;4.90;;;;;;;15.09;62.36;100989.94;4862972;28;97381;-48
2022/09/24 05:12:42;;;;;;;5.90;5.40;;;;;;;15.08;62.21;100991.22;4892383;28;97469;-48
2022/09/24 05:15:08;;;;;;;6.20;5.60;;;;;;;15.07;62.22;100990.44;4887597;28;114825;-48
2022/09/24 05:17:38;;;;;;;5.57;5.17;;;;;;;15.08;62.15;100991.22;4868501;28;98344;-47
2022/09/24 05:20:03;;;;;;;5.70;5.20;;;;;;;15.07;62.33;100992.50;4880756;28;97463;-47
2022/09/24 05:22:30;;;;;;;5.93;5.10;;;;;;;15.05;62.32;100975.63;4871900;28;96972;-49
2022/09/24 05:24:55;;;;;;;11.73;6.27;;;;;;;15.01;62.42;100981.44;4888688;28;97112;-47
2022/09/24 05:27:22;;;;;;;6.33;5.80;;;;;;;15.02;62.37;100977.41;4884046;28;114857;-48
2022/09/24 05:29:47;;;;;;;6.60;5.20;;;;;;;15.02;62.54;100994.03;4865193;28;97513;-48
2022/09/24 05:32:16;;;;;;;5.73;5.30;;;;;;;15.02;62.45;100988.50;4879627;28;98058;-48
2022/09/24 05:34:43;;;;;;;5.57;5.13;;;;;;;15.02;62.47;100983.72;4880086;28;99018;-48
2022/09/24 05:37:09;;;;;;;5.07;4.57;;;;;;;15.05;62.47;100989.47;4870189;28;97179;-48
2022/09/24 05:39:34;;;;;;;5.73;5.27;;;;;;;15.07;62.42;100998.75;4885427;28;97430;-48
2022/09/24 05:42:03;;;;;;;5.83;5.33;;;;;;;15.09;62.69;100992.72;4875130;28;109896;-48
2022/09/24 05:44:29;;;;;;;5.37;4.97;;;;;;;15.10;62.64;100994.22;4872228;28;100584;-47
2022/09/24 05:46:56;;;;;;;7.83;5.07;;;;;;;15.12;62.43;100991.69;4870603;28;98299;-48
2022/09/24 05:49:21;;;;;;;5.73;5.23;;;;;;;15.11;62.61;100990.19;4884229;28;96854;-47
2022/09/24 05:51:50;;;;;;;8.40;5.20;;;;;;;15.11;62.66;100995.72;4895738;28;98946;-47
2022/09/24 05:54:16;;;;;;;6.10;5.30;;;;;;;15.11;62.58;101001.28;4896164;28;97538;-48
2022/09/24 05:56:42;;;;;;;6.87;5.20;;;;;;;15.14;62.56;100994.69;4876862;28;97410;-48
2022/09/24 05:59:08;;;;;;;5.83;5.00;;;;;;;15.15;62.55;101008.03;4893870;28;97317;-48
2022/09/24 06:01:33;;;;;;;6.50;5.80;;;;;;;15.16;62.55;101004.00;4880922;28;96898;-49
2022/09/24 06:03:59;;;;;;;6.30;5.80;;;;;;;15.16;62.58;100997.72;4883145;28;97370;-48
2022/09/24 06:06:25;;;;;;;6.97;6.00;;;;;;;15.17;62.54;101007.53;4881880;28;99409;-48
2022/09/24 06:08:51;;;;;;;6.80;5.53;;;;;;;15.17;62.70;101016.59;4872495;28;98526;-48
2022/09/24 06:11:17;;;;;;;6.40;5.80;;;;;;;15.20;62.73;101007.22;4892417;28;97178;-47
2022/09/24 06:13:43;;;;;;;5.77;5.37;;;;;;;15.23;62.72;101016.53;4884522;28;97265;-48
2022/09/24 06:16:11;;;;;;;5.83;5.33;;;;;;;15.25;62.74;101006.44;4869471;28;97574;-48
2022/09/24 06:18:41;;;;;;;6.40;5.77;;;;;;;15.27;62.78;101014.22;4882602;28;98937;-47
2022/09/24 06:21:16;;;;;;;7.83;6.93;;;;;;;15.26;62.98;101013.50;4871617;28;97235;-47
2022/09/24 06:23:44;;;;;;;5.97;5.57;;;;;;;15.24;62.85;101049.31;4879563;28;97200;-48
2022/09/24 06:26:11;;;;;;;6.30;5.70;;;;;;;15.28;63.03;101013.75;4886586;28;96949;-48
2022/09/24 06:28:37;;;;;;;7.03;5.63;;;;;;;15.30;62.99;101004.91;4892180;28;97437;-48
2022/09/24 06:31:03;;;;;;;6.80;6.20;;;;;;;15.31;63.01;101014.72;4886131;28;96936;-48
2022/09/24 06:33:29;;;;;;;9.63;6.10;;;;;;;15.31;62.94;101020.28;4870662;28;97092;-48
2022/09/24 06:35:58;;;;;;;6.43;5.60;;;;;;;15.35;63.10;101020.75;4888919;28;97444;-48
2022/09/24 06:38:24;;;;;;;6.70;6.10;;;;;;;15.38;62.97;101026.00;4888562;28;100974;-48
2022/09/24 06:40:49;;;;;;;10.40;6.50;;;;;;;15.42;63.00;101025.72;4876555;28;97215;-47
2022/09/24 06:43:16;;;;;;;6.90;6.20;;;;;;;15.44;62.97;101035.03;4886808;28;98600;-47
2022/09/24 06:45:43;;;;;;;7.00;5.77;;;;;;;15.46;63.01;101027.00;4888174;28;98460;-48
2022/09/24 06:48:10;;;;;;;6.87;6.30;;;;;;;15.50;63.00;101027.44;4882770;28;97631;-47
2022/09/24 06:50:39;;;;;;;6.27;5.73;;;;;;;15.52;63.01;101024.91;4886773;28;96809;-48
2022/09/24 06:53:05;;;;;;;5.97;5.47;;;;;;;15.55;62.96;101029.41;4879017;28;98868;-48
2022/09/24 06:55:30;;;;;;;7.53;6.77;;;;;;;15.56;63.03;101027.38;4883640;28;98053;-48
2022/09/24 06:58:07;;;;;;;6.37;5.87;;;;;;;15.58;63.39;101041.50;4890369;28;97201;-47
2022/09/24 07:00:33;;;;;;;7.73;7.03;;;;;;;15.60;62.99;101031.38;4878432;28;103627;-48
2022/09/24 07:02:58;;;;;;;6.57;6.00;;;;;;;15.63;63.03;101038.69;4875140;28;97178;-48
2022/09/24 07:05:24;;;;;;;6.77;6.23;;;;;;;15.65;63.13;101036.16;4877597;28;99013;-47
2022/09/24 07:07:49;;;;;;;6.87;6.27;;;;;;;15.68;63.26;101039.91;4878956;28;97528;-49
2022/09/24 07:10:15;;;;;;;5.87;5.47;;;;;;;15.71;63.05;101036.06;4897026;28;97991;-48
2022/09/24 07:12:41;;;;;;;9.23;6.63;;;;;;;15.70;63.10;101035.31;4877020;28;97469;-49
2022/09/24 07:15:07;;;;;;;7.80;6.30;;;;;;;15.74;63.13;101037.81;4892277;28;111176;-48
2022/09/24 07:17:33;;;;;;;6.27;5.67;;;;;;;15.76;63.05;101038.06;4882338;28;97534;-48
2022/09/24 07:19:58;;;;;;;9.80;6.50;;;;;;;15.79;63.30;101041.81;4867506;28;101747;-48
2022/09/24 07:22:24;;;;;;;6.87;6.27;;;;;;;15.81;63.21;101045.59;4886197;28;97583;-49
2022/09/24 07:24:49;;;;;;;6.50;5.83;;;;;;;15.84;63.19;101038.97;4875458;28;97122;-53
2022/09/24 07:27:15;;;;;;;6.60;6.00;;;;;;;15.89;63.18;101045.75;4887300;28;96758;-48
2022/09/24 07:29:40;;;;;;;6.90;6.20;;;;;;;15.89;63.21;101038.19;4885492;28;97202;-48
2022/09/24 07:32:06;;;;;;;13.70;5.70;;;;;;;15.94;63.16;101039.41;4865675;28;98032;-48
2022/09/24 07:34:31;;;;;;;7.87;6.43;;;;;;;15.98;63.24;101045.41;4886554;28;97370;-48
2022/09/24 07:36:57;;;;;;;6.73;6.13;;;;;;;16.01;63.16;101045.09;4876546;28;97905;-48
2022/09/24 07:39:24;;;;;;;6.60;6.00;;;;;;;16.03;63.28;101045.34;4879332;28;97056;-48
2022/09/24 07:41:51;;;;;;;6.67;6.07;;;;;;;16.07;63.30;101048.59;4889443;28;97397;-49
2022/09/24 07:44:19;;;;;;;7.40;6.70;;;;;;;16.11;63.34;101051.84;4891285;28;97149;-48
2022/09/24 07:46:51;;;;;;;6.30;5.70;;;;;;;16.16;63.35;101047.50;4878025;28;97301;-48
2022/09/24 07:49:16;;;;;;;6.33;5.77;;;;;;;16.18;63.30;101051.25;4884790;28;97741;-48
2022/09/24 07:51:42;;;;;;;6.67;6.10;;;;;;;16.20;63.25;101054.25;4871891;28;98240;-48
2022/09/24 07:54:09;;;;;;;6.43;5.83;;;;;;;16.23;63.23;101053.19;4885685;28;97371;-48
2022/09/24 07:56:35;;;;;;;6.70;6.00;;;;;;;16.26;63.33;101052.16;4886904;28;97194;-48
2022/09/24 07:59:00;;;;;;;6.67;6.07;;;;;;;16.29;63.32;101056.66;4863268;28;96983;-49
2022/09/24 08:01:26;;;;;;;6.90;5.87;;;;;;;16.30;63.16;101054.66;4888728;28;96845;-48
2022/09/24 08:03:52;;;;;;;7.00;6.30;;;;;;;16.32;63.45;101043.75;4875520;28;97171;-48
2022/09/24 08:06:18;;;;;;;7.50;6.20;;;;;;;16.32;63.39;101047.31;4881411;28;96946;-48
2022/09/24 08:08:47;;;;;;;6.00;5.50;;;;;;;16.36;63.33;101053.31;4886151;28;96938;-48
2022/09/24 08:11:13;;;;;;;6.97;6.17;;;;;;;16.39;63.42;101046.72;4865598;28;97409;-48
2022/09/24 08:13:38;;;;;;;7.27;6.57;;;;;;;16.44;63.33;101050.72;4881902;28;97336;-48
2022/09/24 08:16:05;;;;;;;6.17;5.57;;;;;;;16.47;63.36;101050.41;4886997;28;98554;-48
2022/09/24 08:18:31;;;;;;;7.30;6.60;;;;;;;16.52;63.38;101039.78;4871678;28;97223;-49
2022/09/24 08:21:01;;;;;;;5.70;5.23;;;;;;;16.56;63.58;101057.66;4882301;28;97145;-49
2022/09/24 08:23:27;;;;;;;6.43;5.90;;;;;;;16.58;63.52;101052.31;4878687;28;96916;-48
2022/09/24 08:25:55;;;;;;;7.27;6.57;;;;;;;16.62;63.46;101049.25;4881092;28;97430;-50
2022/09/24 08:28:21;;;;;;;5.77;5.27;;;;;;;16.64;63.48;101047.47;4886916;28;97601;-47
2022/09/24 08:30:47;;;;;;;6.30;5.80;;;;;;;16.66;63.47;101056.00;4871462;28;96921;-54
2022/09/24 08:33:12;;;;;;;6.60;6.00;;;;;;;16.70;63.48;101050.91;4886609;28;97381;-47
2022/09/24 08:35:41;;;;;;;6.00;5.50;;;;;;;16.69;63.50;101045.84;4886275;28;97240;-49
2022/09/24 08:38:07;;;;;;;5.83;5.33;;;;;;;16.70;63.54;101041.81;4875396;28;97343;-48
2022/09/24 08:41:03;;;;;;;5.87;5.27;;;;;;;16.67;63.89;101048.41;4882839;28;97710;-49
2022/09/24 08:44:09;;;;;;;6.20;5.60;;;;;;;16.66;63.95;101046.94;4898675;28;102219;-49
2022/09/24 08:49:33;;;;;;;6.40;5.70;;;;;;;16.66;63.38;101056.00;4869030;28;96638;-49
2022/09/24 08:52:07;;;;;;;5.40;5.00;;;;;;;16.66;63.70;101050.47;4880925;28;97429;-50
2022/09/24 08:54:35;;;;;;;5.77;5.23;;;;;;;16.72;63.55;101059.47;4872190;28;97532;-50
2022/09/24 08:57:10;;;;;;;6.83;5.57;;;;;;;16.72;63.69;101059.47;4888125;28;97082;-51
2022/09/24 08:59:38;;;;;;;6.03;5.43;;;;;;;16.76;63.48;101071.03;4881087;28;97091;-51
2022/09/24 09:02:36;;;;;;;6.37;5.67;;;;;;;16.80;63.89;101070.72;4879578;28;97455;-48
2022/09/24 09:05:22;;;;;;;5.27;4.80;;;;;;;16.83;63.79;101072.47;4878604;28;104066;-48
2022/09/24 09:08:30;;;;;;;5.53;5.00;;;;;;;16.83;64.07;101073.22;4871062;28;97130;-48
2022/09/24 09:11:01;;;;;;;6.20;5.60;;;;;;;16.87;63.63;101082.00;4860723;28;100175;-48
2022/09/24 09:13:31;;;;;;;5.73;5.23;;;;;;;16.90;63.58;101113.56;4875355;28;97655;-49
2022/09/24 09:16:02;;;;;;;6.67;6.03;;;;;;;16.96;63.74;101076.06;4868799;28;97761;-48
2022/09/24 09:18:36;;;;;;;6.80;6.20;;;;;;;17.00;63.65;101078.53;4894402;28;98287;-49
2022/09/24 09:21:39;;;;;;;6.23;5.33;;;;;;;17.00;64.24;101070.97;4874036;28;97429;-48
2022/09/24 09:24:12;;;;;;;7.83;5.30;;;;;;;17.02;63.57;101076.75;4880490;28;101087;-49
2022/09/24 09:26:37;;;;;;;6.43;5.83;;;;;;;17.08;63.71;101073.91;4880588;28;98331;-48
2022/09/24 09:29:05;;;;;;;6.87;5.90;;;;;;;17.13;63.64;101075.81;4894350;28;102247;-49
2022/09/24 09:31:45;;;;;;;5.50;5.10;;;;;;;17.15;63.61;101082.38;4872107;28;96929;-48
2022/09/24 09:34:31;;;;;;;7.77;6.30;;;;;;;17.18;64.17;101072.22;4891942;28;101746;-48
2022/09/24 09:36:56;;;;;;;6.40;5.83;;;;;;;17.16;63.75;101077.56;4878956;28;102297;-48
2022/09/24 09:39:29;;;;;;;6.50;5.90;;;;;;;17.22;63.98;101072.66;4878729;28;97221;-48
2022/09/24 09:42:33;;;;;;;6.63;6.03;;;;;;;17.26;64.21;101070.31;4885832;28;97850;-49
2022/09/24 09:45:16;;;;;;;8.53;6.83;;;;;;;17.31;63.91;101072.28;4882737;28;101990;-49
2022/09/24 09:47:48;;;;;;;6.70;6.10;;;;;;;17.39;64.05;101077.97;4871942;28;103516;-49
2022/09/24 09:50:22;;;;;;;7.40;6.70;;;;;;;17.45;63.95;101068.25;4886335;28;99988;-53
2022/09/24 09:52:48;;;;;;;6.47;5.80;;;;;;;17.48;63.77;101078.31;4889841;28;97027;-48
2022/09/24 09:55:29;;;;;;;10.40;6.60;;;;;;;17.54;64.21;101069.94;4878951;28;115455;-48
2022/09/24 09:58:16;;;;;;;8.57;6.67;;;;;;;17.56;64.41;101067.38;4885156;28;103429;-49
2022/09/24 10:00:41;;;;;;;10.90;6.37;;;;;;;17.56;63.86;101076.44;4873604;28;97364;-48
2022/09/24 10:03:45;;;;;;;6.97;6.30;;;;;;;17.55;64.09;101071.41;4873600;28;97678;-48
2022/09/24 10:06:26;;;;;;;7.10;6.40;;;;;;;17.56;64.04;101072.94;4890507;28;101763;-49
2022/09/24 10:08:52;;;;;;;7.60;6.80;;;;;;;17.55;63.63;101066.63;4885991;28;101675;-48
2022/09/24 10:11:18;;;;;;;7.90;7.13;;;;;;;17.51;63.69;101077.31;4894756;28;98769;-48
2022/09/24 10:13:44;;;;;;;7.40;6.70;;;;;;;17.55;63.97;101066.63;4869487;28;97152;-48
2022/09/24 10:16:12;;;;;;;7.43;6.70;;;;;;;17.63;64.08;101070.25;4872641;28;98449;-48
2022/09/24 10:18:48;;;;;;;7.13;6.43;;;;;;;17.75;64.49;101066.03;4876254;28;97566;-48
2022/09/24 10:21:30;;;;;;;6.03;5.43;;;;;;;17.83;64.32;101064.09;4876416;28;97069;-48
2022/09/24 10:24:00;;;;;;;8.80;6.93;;;;;;;17.88;63.93;101068.84;4870108;28;97409;-48
2022/09/24 10:26:39;;;;;;;9.60;6.90;;;;;;;17.89;64.12;101059.19;4888213;28;96831;-48
2022/09/24 10:32:28;;;;;;;7.80;6.77;;;;;;;18.00;64.03;101063.06;4871299;28;97355;-48
2022/09/24 10:34:58;;;;;;;7.87;6.20;;;;;;;18.04;63.78;101058.69;4882738;28;99108;-48
2022/09/24 10:37:24;;;;;;;8.10;6.73;;;;;;;18.12;63.82;101056.75;4875863;28;98737;-48
2022/09/24 10:39:57;;;;;;;7.13;6.27;;;;;;;18.20;63.61;101057.59;4886840;28;97804;-48
2022/09/24 10:42:24;;;;;;;7.07;6.47;;;;;;;18.26;63.47;101051.94;4865154;28;97190;-48
2022/09/24 10:44:50;;;;;;;8.20;6.97;;;;;;;18.32;63.34;101053.34;4887425;28;96919;-48
2022/09/24 10:47:30;;;;;;;7.37;6.67;;;;;;;18.39;63.43;101046.34;4886679;28;97512;-48
2022/09/24 10:50:15;;;;;;;7.57;6.70;;;;;;;18.40;63.22;101053.41;4872259;28;102653;-48
2022/09/24 10:52:56;;;;;;;7.67;6.93;;;;;;;18.41;63.37;101049.34;4871272;28;98518;-48
2022/09/24 10:55:44;;;;;;;7.70;6.80;;;;;;;18.44;63.54;101057.41;4884902;28;97181;-48
2022/09/24 10:58:27;;;;;;;8.03;7.20;;;;;;;18.47;63.48;101050.00;4887102;28;102815;-47
2022/09/24 11:01:16;;;;;;;6.20;5.70;;;;;;;18.50;63.20;101046.16;4876631;28;97333;-48
2022/09/24 11:04:20;;;;;;;8.00;6.27;;;;;;;18.54;63.83;101052.16;4891011;28;96944;-48
2022/09/24 11:07:10;;;;;;;9.67;6.20;;;;;;;18.59;63.32;101046.44;4886626;28;96970;-48
2022/09/24 11:10:10;;;;;;;6.57;5.90;;;;;;;18.58;62.84;101047.75;4885692;28;103134;-48
2022/09/24 11:12:49;;;;;;;7.73;6.97;;;;;;;18.59;62.82;101040.13;4884414;28;102719;-48
2022/09/24 11:15:39;;;;;;;5.97;5.37;;;;;;;18.58;62.99;101047.75;4869456;28;97396;-48
2022/09/24 11:18:38;;;;;;;10.90;6.10;;;;;;;18.59;63.22;101042.91;4884546;28;97870;-48
2022/09/24 11:21:22;;;;;;;6.67;6.07;;;;;;;18.57;62.69;101045.50;4882413;28;100384;-48
2022/09/24 11:24:09;;;;;;;8.07;7.27;;;;;;;18.56;62.60;101044.75;4880636;28;101364;-47
2022/09/24 11:26:54;;;;;;;9.37;6.40;;;;;;;18.55;63.19;101043.25;4874063;28;97294;-51
2022/09/24 11:29:58;;;;;;;8.63;6.20;;;;;;;18.51;63.07;101037.25;4879803;28;97486;-46
2022/09/24 11:32:33;;;;;;;7.37;6.67;;;;;;;18.47;62.86;101036.84;4877632;28;101093;-48
2022/09/24 11:35:36;;;;;;;8.73;6.77;;;;;;;18.49;62.98;101044.66;4882864;28;97037;-49
2022/09/24 11:38:16;;;;;;;7.63;6.30;;;;;;;18.49;62.68;101042.63;4872899;28;97175;-48
2022/09/24 11:41:12;;;;;;;9.67;7.00;;;;;;;18.51;62.44;101042.84;4882590;28;97522;-50
2022/09/24 11:44:24;;;;;;;10.20;6.00;;;;;;;18.52;62.66;101043.59;4883762;28;101855;-46
2022/09/24 11:47:15;;;;;;;6.90;6.20;;;;;;;18.54;62.75;101041.00;4888124;28;100230;-47
2022/09/24 11:49:40;;;;;;;6.70;6.00;;;;;;;18.56;62.44;101044.75;4880339;28;97127;-47
2022/09/24 11:52:23;;;;;;;7.00;5.50;;;;;;;18.58;62.43;101038.63;4876921;28;96943;-47
2022/09/24 11:55:01;;;;;;;7.13;5.63;;;;;;;18.61;62.14;101034.75;4882630;28;100314;-47